Penns, Mississippi
Current Conditions -  °F | °C
As of 6:50 AM on Saturday 22 Nov 2014 (Local Time) from KGTR Reporting Station
Broken Clouds Broken Clouds  
Wind Chill: 43°   Ceiling: 11000
Heat Index: 46°   Visibility: 10mi
Dew Point: 39°   Wind: 7mph
Humidity: 76%   Direction: 150°SSE
Pressure: 30.31"   Gusts: NA
Location:  33.3415°N, 88.5175°W
Report Text: KGTR 221250Z 15006KT 10SM BKN110 08/04 A3031
Loading
Personal Weather Stations






























Interactive Weather Map New forecast layout! Learn more

10-Day Weather Forecast

Advertisements
Track Severe Weather on mobile